Time;durP1;ratioP1;P1;durP2;ratioP2;P2;SDS_P1;SDS_P2;PMS_P1;PMS_P2;Temp;Humidity;BMP_temperature;BMP_pressure;BME280_temperature;BME280_humidity;BME280_pressure;Samples;Min_cycle;Max_cycle;Signal;HPM_P1;HPM_P2
2023/03/27 00:02:21;;;;;;;10.00;2.47;;;1.40;99.90;;;;;;4961741;28;20265;-68
2023/03/27 00:04:49;;;;;;;12.93;2.70;;;1.40;99.90;;;;;;4974448;28;20241;-73
2023/03/27 00:07:18;;;;;;;12.60;2.60;;;1.40;99.90;;;;;;4956132;28;20210;-68
2023/03/27 00:09:45;;;;;;;12.47;2.50;;;1.40;99.90;;;;;;4963003;28;20728;-68
2023/03/27 00:12:12;;;;;;;10.50;3.17;;;1.40;99.90;;;;;;4973427;28;20194;-67
2023/03/27 00:14:40;;;;;;;12.13;2.60;;;1.30;99.90;;;;;;4963929;28;20234;-68
2023/03/27 00:17:07;;;;;;;7.47;2.30;;;1.30;99.90;;;;;;4967657;28;20268;-68
2023/03/27 00:19:35;;;;;;;15.30;2.80;;;1.20;99.90;;;;;;4967261;28;20202;-68
2023/03/27 00:22:02;;;;;;;21.60;2.70;;;1.20;99.90;;;;;;4966189;28;20662;-67
2023/03/27 00:24:29;;;;;;;10.50;2.30;;;1.10;99.90;;;;;;4961153;28;20765;-68
2023/03/27 00:26:57;;;;;;;14.60;2.70;;;1.10;99.90;;;;;;4968216;28;20195;-68
2023/03/27 00:29:23;;;;;;;13.50;2.97;;;1.10;99.90;;;;;;4967430;28;20617;-67
2023/03/27 00:31:50;;;;;;;20.27;2.53;;;1.10;99.90;;;;;;4966503;28;20206;-68
2023/03/27 00:34:17;;;;;;;7.13;2.00;;;1.20;99.90;;;;;;4967347;28;20593;-69
2023/03/27 00:36:49;;;;;;;7.03;2.10;;;1.10;99.90;;;;;;4965918;28;20186;-69
2023/03/27 00:39:18;;;;;;;16.13;2.67;;;1.10;99.90;;;;;;4982627;28;20764;-67
2023/03/27 00:41:46;;;;;;;13.87;2.93;;;1.10;99.90;;;;;;4979209;28;20190;-68
2023/03/27 00:44:23;;;;;;;15.00;3.10;;;1.10;99.90;;;;;;4962512;28;20194;-69
2023/03/27 00:46:54;;;;;;;13.87;2.97;;;1.00;99.90;;;;;;4978661;28;20190;-68
2023/03/27 00:49:22;;;;;;;16.90;4.00;;;1.00;99.90;;;;;;4963772;28;20207;-68
2023/03/27 00:51:51;;;;;;;16.17;4.93;;;0.90;99.90;;;;;;4979193;28;20293;-69
2023/03/27 00:54:25;;;;;;;13.70;4.03;;;0.90;99.90;;;;;;4977347;28;20198;-68
2023/03/27 00:57:05;;;;;;;14.47;2.93;;;0.90;99.90;;;;;;4962161;28;20207;-68
2023/03/27 00:59:38;;;;;;;8.73;2.13;;;0.80;1.00;;;;;;4946954;28;20213;-68
2023/03/27 01:02:07;;;;;;;14.00;2.60;;;0.80;1.00;;;;;;4978790;28;20218;-70
2023/03/27 01:04:40;;;;;;;10.90;3.43;;;0.80;1.00;;;;;;4959471;28;20674;-71
2023/03/27 01:07:09;;;;;;;19.93;2.60;;;0.80;1.00;;;;;;4959176;28;20650;-68
2023/03/27 01:09:37;;;;;;;13.90;2.43;;;0.80;1.00;;;;;;4978339;28;20338;-69
2023/03/27 01:12:34;;;;;;;9.53;2.73;;;0.80;1.00;;;;;;4968810;28;20624;-70
2023/03/27 01:15:38;;;;;;;15.50;2.90;;;0.80;1.00;;;;;;4977006;28;20211;-70
2023/03/27 01:18:30;;;;;;;15.60;2.80;;;0.80;1.00;;;;;;4965185;28;20264;-68
2023/03/27 01:21:37;;;;;;;12.00;2.73;;;0.70;1.00;;;;;;4953553;28;20234;-69
2023/03/27 01:24:26;;;;;;;12.07;2.50;;;0.70;1.00;;;;;;4959026;28;20214;-69
2023/03/27 01:27:00;;;;;;;16.73;2.63;;;0.70;1.00;;;;;;4961444;28;20210;-69
2023/03/27 01:29:43;;;;;;;7.87;2.60;;;0.60;1.00;;;;;;4978773;28;20207;-72
2023/03/27 01:32:31;;;;;;;13.27;2.80;;;0.60;1.00;;;;;;4977328;28;20234;-68
2023/03/27 01:35:14;;;;;;;14.57;3.00;;;0.60;1.00;;;;;;4963095;28;20348;-70
2023/03/27 01:38:13;;;;;;;12.77;2.53;;;0.60;1.00;;;;;;4961853;28;20198;-69
2023/03/27 01:41:19;;;;;;;17.70;3.40;;;0.70;1.00;;;;;;4977777;28;20249;-68
2023/03/27 01:43:58;;;;;;;8.03;2.50;;;0.70;1.00;;;;;;4957315;28;20225;-67
2023/03/27 01:47:00;;;;;;;12.93;2.83;;;0.60;1.00;;;;;;4962741;28;20806;-68
2023/03/27 01:49:42;;;;;;;14.40;2.50;;;0.60;1.00;;;;;;4958068;28;20209;-68
2023/03/27 01:52:16;;;;;;;15.90;2.60;;;0.60;1.00;;;;;;4963293;28;20278;-69
2023/03/27 01:54:54;;;;;;;28.20;2.90;;;0.60;1.00;;;;;;4961908;28;20209;-70
2023/03/27 01:57:29;;;;;;;9.00;2.70;;;0.60;1.00;;;;;;4961733;28;21055;-70
2023/03/27 02:00:20;;;;;;;17.17;3.23;;;0.60;1.00;;;;;;4961819;28;20609;-69
2023/03/27 02:02:51;;;;;;;13.77;2.57;;;0.50;1.00;;;;;;4962348;28;20206;-70
2023/03/27 02:05:41;;;;;;;8.67;2.40;;;0.50;1.00;;;;;;4976849;28;20555;-70
2023/03/27 02:08:08;;;;;;;14.63;2.50;;;0.50;1.00;;;;;;4962009;28;20214;-70
2023/03/27 02:10:43;;;;;;;16.63;2.67;;;0.40;1.00;;;;;;4977605;28;20690;-70
2023/03/27 02:13:26;;;;;;;9.13;2.73;;;0.40;1.00;;;;;;4961198;28;20206;-70
2023/03/27 02:15:57;;;;;;;14.97;3.33;;;0.40;1.00;;;;;;4971416;28;20209;-70
2023/03/27 02:18:32;;;;;;;15.20;2.60;;;0.40;1.00;;;;;;4977154;28;20206;-71
2023/03/27 02:21:01;;;;;;;11.43;3.20;;;0.40;1.00;;;;;;4962201;28;20201;-70
2023/03/27 02:23:30;;;;;;;20.57;3.07;;;0.40;1.00;;;;;;4961446;28;20206;-72
2023/03/27 02:25:58;;;;;;;13.53;2.87;;;0.30;1.00;;;;;;4961126;28;20698;-69
2023/03/27 02:29:01;;;;;;;12.37;4.53;;;0.40;18.50;;;;;;4977591;28;20207;-69
2023/03/27 02:31:52;;;;;;;15.03;3.20;;;0.30;31.80;;;;;;4959891;28;20251;-69
2023/03/27 02:34:31;;;;;;;16.20;3.17;;;0.30;76.80;;;;;;4978139;28;20241;-68
2023/03/27 02:37:15;;;;;;;17.37;3.13;;;0.30;93.00;;;;;;4960940;28;20214;-70
2023/03/27 02:40:57;;;;;;;14.53;2.80;;;0.40;99.90;;;;;;4902642;29;20219;-69
2023/03/27 02:44:03;;;;;;;14.57;2.53;;;0.50;99.90;;;;;;4902783;29;20349;-69
2023/03/27 02:47:01;;;;;;;19.43;3.43;;;0.40;99.90;;;;;;4973957;28;20217;-69
2023/03/27 02:49:36;;;;;;;15.17;3.23;;;0.40;99.90;;;;;;4977168;28;20218;-70
2023/03/27 02:52:15;;;;;;;13.23;2.97;;;0.40;81.50;;;;;;4968360;28;20285;-70
2023/03/27 02:54:49;;;;;;;9.53;3.13;;;0.40;90.30;;;;;;4960087;28;20265;-71
2023/03/27 02:57:21;;;;;;;13.07;3.10;;;0.30;99.90;;;;;;4961798;28;20209;-70
2023/03/27 03:00:36;;;;;;;13.60;2.60;;;0.30;99.90;;;;;;4957650;28;20238;-69
2023/03/27 03:03:58;;;;;;;14.23;3.20;;;0.30;99.90;;;;;;4968717;28;20213;-70
2023/03/27 03:06:46;;;;;;;12.23;3.07;;;0.30;99.90;;;;;;4931221;28;20226;-70
2023/03/27 03:09:13;;;;;;;10.50;2.50;;;0.30;99.90;;;;;;4961264;28;20205;-70
2023/03/27 03:11:52;;;;;;;16.03;3.30;;;0.30;99.90;;;;;;4976233;28;20214;-69
2023/03/27 03:14:25;;;;;;;11.90;3.13;;;0.30;99.90;;;;;;4953027;28;20210;-69
2023/03/27 03:16:52;;;;;;;10.80;3.40;;;0.30;99.90;;;;;;4962388;28;20190;-69
2023/03/27 03:19:23;;;;;;;20.83;3.30;;;0.30;99.90;;;;;;4975898;28;20207;-69
2023/03/27 03:21:50;;;;;;;12.27;3.40;;;0.30;99.90;;;;;;4960656;28;20622;-71
2023/03/27 03:24:17;;;;;;;15.80;3.03;;;0.30;99.90;;;;;;4975727;28;20202;-71
2023/03/27 03:26:48;;;;;;;13.07;3.30;;;0.30;99.90;;;;;;4976346;28;20202;-71
2023/03/27 03:29:18;;;;;;;12.53;2.87;;;0.20;99.90;;;;;;4960494;28;20774;-71
2023/03/27 03:32:05;;;;;;;15.77;3.37;;;0.30;99.90;;;;;;4940289;28;20242;-70
2023/03/27 03:34:32;;;;;;;11.93;3.10;;;0.30;99.90;;;;;;4960370;28;20199;-70
2023/03/27 03:36:59;;;;;;;11.73;2.80;;;0.20;99.90;;;;;;4975680;28;20211;-71
2023/03/27 03:39:29;;;;;;;12.30;3.27;;;0.20;99.90;;;;;;4976474;28;20281;-71
2023/03/27 03:41:56;;;;;;;9.00;3.00;;;0.10;99.90;;;;;;4975648;28;20213;-71
2023/03/27 03:44:23;;;;;;;20.83;4.13;;;0.10;99.90;;;;;;4961292;28;20230;-71
2023/03/27 03:46:50;;;;;;;17.57;3.70;;;0.10;99.90;;;;;;4975011;28;20213;-69
2023/03/27 03:49:20;;;;;;;15.93;3.97;;;0.20;99.90;;;;;;4975177;28;20214;-70
2023/03/27 03:51:47;;;;;;;13.37;3.50;;;0.20;1.00;;;;;;4961124;28;20226;-71
2023/03/27 03:54:30;;;;;;;11.20;3.57;;;0.30;99.90;;;;;;4961849;28;20248;-71
2023/03/27 03:56:57;;;;;;;18.57;4.00;;;0.30;99.90;;;;;;4976024;28;20214;-68
2023/03/27 03:59:25;;;;;;;14.63;3.70;;;0.30;99.90;;;;;;4975991;28;20226;-68
2023/03/27 04:02:11;;;;;;;14.07;3.83;;;0.40;1.00;;;;;;4973772;28;20210;-69
2023/03/27 04:04:38;;;;;;;17.90;4.17;;;0.50;1.00;;;;;;4974412;28;20221;-69
2023/03/27 04:07:09;;;;;;;15.17;4.00;;;0.70;1.00;;;;;;4959145;28;20203;-69
2023/03/27 04:09:42;;;;;;;10.33;3.67;;;0.70;99.90;;;;;;4974497;28;20202;-69
2023/03/27 04:12:25;;;;;;;15.30;3.63;;;0.70;99.90;;;;;;4976231;28;20320;-69
2023/03/27 04:14:57;;;;;;;16.13;3.73;;;0.70;99.90;;;;;;4959033;28;20234;-70
2023/03/27 04:17:44;;;;;;;15.67;4.27;;;0.60;99.90;;;;;;4959329;28;20205;-70
2023/03/27 04:20:12;;;;;;;13.67;3.43;;;0.60;99.90;;;;;;4975563;28;20223;-69
2023/03/27 04:22:47;;;;;;;11.83;3.43;;;0.50;99.90;;;;;;4975596;28;20209;-70
2023/03/27 04:25:16;;;;;;;15.13;3.80;;;0.50;99.90;;;;;;4975380;28;20253;-68
2023/03/27 04:27:44;;;;;;;12.10;2.90;;;0.50;99.90;;;;;;4974733;28;20256;-69
2023/03/27 04:30:23;;;;;;;14.37;3.27;;;0.50;99.90;;;;;;4968441;28;20198;-69
2023/03/27 04:33:17;;;;;;;13.57;3.23;;;0.60;99.90;;;;;;4960100;28;20562;-70
2023/03/27 04:36:13;;;;;;;14.67;3.30;;;0.70;99.90;;;;;;4958540;28;20209;-68
2023/03/27 04:38:52;;;;;;;15.03;3.13;;;0.70;99.90;;;;;;4974387;28;20210;-68
2023/03/27 04:41:20;;;;;;;11.63;3.10;;;0.80;99.90;;;;;;4976177;28;20501;-68
2023/03/27 04:43:47;;;;;;;17.40;3.30;;;0.80;72.30;;;;;;4958625;28;20254;-70
2023/03/27 04:46:14;;;;;;;14.87;3.83;;;0.70;40.20;;;;;;4973617;28;20816;-68
2023/03/27 04:48:42;;;;;;;16.43;3.53;;;0.80;18.10;;;;;;4971711;28;20829;-69
2023/03/27 04:51:25;;;;;;;14.57;3.57;;;0.80;1.00;;;;;;4975579;28;20214;-69
2023/03/27 04:53:55;;;;;;;13.80;3.93;;;0.70;1.00;;;;;;4958264;28;20199;-69
2023/03/27 04:56:23;;;;;;;11.43;3.67;;;0.60;1.00;;;;;;4975602;28;20203;-69
2023/03/27 04:58:53;;;;;;;15.73;3.70;;;0.60;1.00;;;;;;4975410;28;20213;-68
2023/03/27 05:01:21;;;;;;;9.97;3.40;;;0.50;1.00;;;;;;4977609;28;20245;-69
2023/03/27 05:04:07;;;;;;;12.23;3.83;;;0.50;1.00;;;;;;4961873;28;20241;-68
2023/03/27 05:06:52;;;;;;;12.47;3.00;;;0.40;1.00;;;;;;4958858;28;20239;-68
2023/03/27 05:09:20;;;;;;;13.17;3.80;;;0.40;1.00;;;;;;4978510;28;20538;-69
2023/03/27 05:11:48;;;;;;;10.27;3.47;;;0.40;1.00;;;;;;4977880;28;20226;-70
2023/03/27 05:14:22;;;;;;;14.17;3.30;;;0.40;1.00;;;;;;4961159;28;20190;-70
2023/03/27 05:16:53;;;;;;;14.70;4.83;;;0.30;1.00;;;;;;4979608;28;20199;-70
2023/03/27 05:19:21;;;;;;;13.70;3.10;;;0.40;12.10;;;;;;4977836;28;20222;-70
2023/03/27 05:21:56;;;;;;;12.83;4.67;;;0.40;1.00;;;;;;4977687;28;20210;-69
2023/03/27 05:24:23;;;;;;;14.30;8.37;;;0.40;12.90;;;;;;4977813;28;20190;-70
2023/03/27 05:26:50;;;;;;;21.20;5.10;;;0.40;18.70;;;;;;4975590;28;20214;-70
2023/03/27 05:29:17;;;;;;;8.97;3.47;;;0.40;2.90;;;;;;4979098;28;20252;-70
2023/03/27 05:31:47;;;;;;;8.63;2.70;;;0.50;1.00;;;;;;4977950;28;20252;-70
2023/03/27 05:34:37;;;;;;;10.13;3.60;;;0.50;1.00;;;;;;4977262;28;20213;-70
2023/03/27 05:37:08;;;;;;;12.90;3.43;;;0.60;1.00;;;;;;4977551;28;20191;-69
2023/03/27 05:39:53;;;;;;;8.70;3.10;;;0.80;1.00;;;;;;4961780;28;20558;-69
2023/03/27 05:42:20;;;;;;;10.37;4.17;;;0.80;1.00;;;;;;4961757;28;20655;-69
2023/03/27 05:44:47;;;;;;;13.10;3.53;;;0.90;1.00;;;;;;4977449;28;20194;-68
2023/03/27 05:47:15;;;;;;;12.43;3.43;;;1.00;1.00;;;;;;4976542;28;20215;-69
2023/03/27 05:49:42;;;;;;;12.20;3.30;;;1.00;1.00;;;;;;4961184;28;20294;-69
2023/03/27 05:52:11;;;;;;;19.03;3.57;;;1.10;1.00;;;;;;4972115;28;20218;-70
2023/03/27 05:54:40;;;;;;;17.37;3.50;;;1.20;1.00;;;;;;4969174;28;20293;-69
2023/03/27 05:57:09;;;;;;;13.87;4.70;;;1.20;1.00;;;;;;4969002;28;20203;-69
2023/03/27 05:59:38;;;;;;;11.27;3.77;;;1.40;1.00;;;;;;4975505;28;20210;-70
2023/03/27 06:02:17;;;;;;;13.50;3.50;;;1.50;99.90;;;;;;4976332;28;20210;-68
2023/03/27 06:04:57;;;;;;;8.37;2.83;;;2.20;99.90;;;;;;4976189;28;20198;-69
2023/03/27 06:07:29;;;;;;;13.37;2.83;;;4.50;99.90;;;;;;4976077;28;20249;-69
2023/03/27 06:10:01;;;;;;;9.03;3.10;;;6.60;1.00;;;;;;4944976;28;20294;-70
2023/03/27 06:12:32;;;;;;;7.90;2.30;;;8.30;1.00;;;;;;4961410;28;21279;-69
2023/03/27 06:15:08;;;;;;;6.77;2.00;;;9.80;1.00;;;;;;4977184;28;20198;-75
2023/03/27 06:18:08;;;;;;;9.57;3.13;;;11.20;1.00;;;;;;4948408;28;20206;-69
2023/03/27 06:20:39;;;;;;;10.13;2.20;;;11.50;1.00;;;;;;4962301;28;20291;-70
2023/03/27 06:23:08;;;;;;;9.50;2.43;;;9.60;1.00;;;;;;4959421;28;20194;-71
2023/03/27 06:25:37;;;;;;;9.00;2.33;;;8.00;1.00;;;;;;4977982;28;20565;-71
2023/03/27 06:28:08;;;;;;;9.73;2.53;;;6.70;1.00;;;;;;4975772;28;20203;-70
2023/03/27 06:30:53;;;;;;;7.90;2.67;;;5.80;1.00;;;;;;4961970;28;20211;-70
2023/03/27 06:33:28;;;;;;;9.60;2.33;;;5.10;1.00;;;;;;4977384;28;20288;-70
2023/03/27 06:36:01;;;;;;;7.53;2.40;;;4.70;1.00;;;;;;4960153;28;20226;-73
2023/03/27 06:38:31;;;;;;;8.90;2.90;;;4.50;1.00;;;;;;4976601;28;20265;-69
2023/03/27 06:41:00;;;;;;;5.00;2.83;;;4.50;1.00;;;;;;4975902;28;20206;-69
2023/03/27 06:43:51;;;;;;;9.80;2.33;;;4.60;1.00;;;;;;4953131;28;20217;-69
2023/03/27 06:46:38;;;;;;;10.07;2.27;;;4.70;1.00;;;;;;4974443;28;20741;-70
2023/03/27 06:49:26;;;;;;;8.23;2.33;;;7.10;1.00;;;;;;4976036;28;20234;-70
2023/03/27 06:51:53;;;;;;;4.53;2.03;;;11.50;1.00;;;;;;4959633;28;20226;-72
2023/03/27 06:54:21;;;;;;;8.43;2.17;;;14.10;1.00;;;;;;4975933;28;20210;-71
2023/03/27 06:56:51;;;;;;;6.90;2.05;;;16.00;1.00;;;;;;4974606;28;20246;-70
2023/03/27 06:59:20;;;;;;;4.72;2.13;;;17.60;1.00;;;;;;4974802;28;20285;-71
2023/03/27 07:01:51;;;;;;;6.18;2.08;;;18.20;1.00;;;;;;4974296;28;20268;-71
2023/03/27 07:04:21;;;;;;;8.02;2.50;;;18.10;1.00;;;;;;4960241;28;20205;-70
2023/03/27 07:07:04;;;;;;;4.43;1.85;;;18.80;1.00;;;;;;4973989;28;20686;-68
2023/03/27 07:09:35;;;;;;;4.20;1.80;;;19.70;1.00;;;;;;4974613;28;20261;-68
2023/03/27 07:12:07;;;;;;;6.95;2.10;;;19.90;1.00;;;;;;4974640;28;20365;-68
2023/03/27 07:14:36;;;;;;;8.45;2.20;;;20.40;1.00;;;;;;4975079;28;20296;-69
2023/03/27 07:17:03;;;;;;;6.57;1.77;;;20.10;1.00;;;;;;4974819;28;20202;-68
2023/03/27 07:20:02;;;;;;;7.47;2.17;;;20.60;1.00;;;;;;4958342;28;20510;-67
2023/03/27 07:22:30;;;;;;;5.28;1.85;;;20.40;1.00;;;;;;4960894;28;20586;-69
2023/03/27 07:25:04;;;;;;;5.13;2.10;;;20.70;1.00;;;;;;4956861;28;20268;-69
2023/03/27 07:27:37;;;;;;;8.57;2.10;;;21.10;1.00;;;;;;4958487;28;20206;-70
2023/03/27 07:30:07;;;;;;;5.85;2.05;;;22.00;1.00;;;;;;4974084;28;20199;-70
2023/03/27 07:32:35;;;;;;;6.22;2.45;;;22.40;1.00;;;;;;4956961;28;20655;-70
2023/03/27 07:35:07;;;;;;;5.00;2.05;;;22.50;1.00;;;;;;4973849;28;20194;-69
2023/03/27 07:38:02;;;;;;;10.02;2.05;;;23.10;1.00;;;;;;4959553;28;20207;-69
2023/03/27 07:40:32;;;;;;;7.13;2.40;;;23.10;1.00;;;;;;4957803;28;20317;-69
2023/03/27 07:43:44;;;;;;;7.07;2.20;;;21.90;1.00;;;;;;4918722;29;20255;-69
2023/03/27 07:46:12;;;;;;;6.20;2.08;;;22.60;1.00;;;;;;4918818;29;20204;-67
2023/03/27 07:48:40;;;;;;;5.43;2.30;;;22.80;1.00;;;;;;4944456;28;20294;-69
2023/03/27 07:51:14;;;;;;;4.68;1.88;;;22.60;1.00;;;;;;4971055;28;20210;-69
2023/03/27 07:53:42;;;;;;;5.28;2.13;;;22.60;1.00;;;;;;4959089;28;20269;-69
2023/03/27 07:56:22;;;;;;;6.43;2.92;;;22.70;1.00;;;;;;4974023;28;20743;-69
2023/03/27 07:59:04;;;;;;;5.22;2.03;;;22.90;1.00;;;;;;4974077;28;20296;-69
2023/03/27 08:01:32;;;;;;;9.10;2.40;;;22.70;1.00;;;;;;4942673;28;20781;-69
2023/03/27 08:04:00;;;;;;;6.82;2.33;;;22.60;1.00;;;;;;4960400;28;20529;-70
2023/03/27 08:06:28;;;;;;;6.20;2.08;;;23.50;1.00;;;;;;4974271;28;20213;-70
2023/03/27 08:08:57;;;;;;;6.00;1.77;;;20.00;1.00;;;;;;4966795;28;20210;-70
2023/03/27 08:11:27;;;;;;;4.50;2.05;;;21.40;1.00;;;;;;4973782;28;20213;-70
2023/03/27 08:13:58;;;;;;;6.00;2.20;;;20.00;1.00;;;;;;4973713;28;20202;-69
2023/03/27 08:16:28;;;;;;;5.72;2.22;;;21.20;1.00;;;;;;4972507;28;20667;-69
2023/03/27 08:18:59;;;;;;;5.15;2.20;;;22.20;1.00;;;;;;4958023;28;20293;-70
2023/03/27 08:21:30;;;;;;;12.18;5.22;;;20.90;1.00;;;;;;4958744;28;20198;-70
2023/03/27 08:24:00;;;;;;;10.27;2.30;;;23.00;1.00;;;;;;4973725;28;20198;-70
2023/03/27 08:26:48;;;;;;;6.43;2.10;;;24.00;1.00;;;;;;4949283;28;20716;-69
2023/03/27 08:29:15;;;;;;;4.30;1.85;;;22.70;1.00;;;;;;4973958;28;20194;-70
2023/03/27 08:31:45;;;;;;;7.25;1.73;;;20.90;1.00;;;;;;4973563;28;20210;-69
2023/03/27 08:34:13;;;;;;;5.72;1.85;;;19.50;1.00;;;;;;4975381;28;20266;-69
2023/03/27 08:36:46;;;;;;;5.13;2.33;;;16.80;1.00;;;;;;4962907;28;20293;-71
2023/03/27 08:39:14;;;;;;;6.03;2.17;;;14.90;1.00;;;;;;4978050;28;20205;-70
2023/03/27 08:41:54;;;;;;;4.75;1.70;;;15.20;1.00;;;;;;4976260;28;20198;-71
2023/03/27 08:44:30;;;;;;;4.95;1.98;;;19.30;1.00;;;;;;4978070;28;20225;-75
2023/03/27 08:47:17;;;;;;;6.55;1.80;;;19.20;1.00;;;;;;4977058;28;20218;-72
2023/03/27 08:49:57;;;;;;;4.93;2.03;;;22.00;1.00;;;;;;4977450;28;20229;-70
2023/03/27 08:52:31;;;;;;;5.72;1.73;;;19.60;1.00;;;;;;4960753;28;20725;-69
2023/03/27 08:55:12;;;;;;;5.22;1.98;;;23.50;1.00;;;;;;4977794;28;20222;-70
2023/03/27 08:57:49;;;;;;;5.32;2.00;;;22.70;1.00;;;;;;4962783;28;20543;-70
2023/03/27 09:00:24;;;;;;;5.25;1.85;;;19.10;1.00;;;;;;4976873;28;20245;-72
2023/03/27 09:03:39;;;;;;;6.65;2.15;;;16.10;1.00;;;;;;4976771;28;20217;-68
2023/03/27 09:06:18;;;;;;;7.65;2.00;;;13.70;1.00;;;;;;4976960;28;20214;-72
2023/03/27 09:09:08;;;;;;;6.30;2.20;;;14.40;1.00;;;;;;4976982;28;20199;-73
2023/03/27 09:11:57;;;;;;;10.48;3.08;;;16.60;1.00;;;;;;4961692;28;20202;-71
2023/03/27 09:14:39;;;;;;;5.63;2.10;;;14.00;1.00;;;;;;4978018;28;20602;-71
2023/03/27 09:17:17;;;;;;;5.28;1.80;;;12.60;1.00;;;;;;4976646;28;20213;-70
2023/03/27 09:20:07;;;;;;;4.47;1.90;;;12.40;1.00;;;;;;4970157;28;20212;-70
2023/03/27 09:22:43;;;;;;;5.60;1.70;;;11.60;1.00;;;;;;4962074;28;20681;-70
2023/03/27 09:25:19;;;;;;;5.87;2.10;;;11.70;1.00;;;;;;4977223;28;20204;-69
2023/03/27 09:27:52;;;;;;;6.80;3.03;;;14.00;1.00;;;;;;4962829;28;20195;-68
2023/03/27 09:30:39;;;;;;;8.25;2.60;;;14.70;1.00;;;;;;4961137;28;20218;-69
2023/03/27 09:33:12;;;;;;;9.20;2.28;;;18.10;1.00;;;;;;4977470;28;20278;-72
2023/03/27 09:35:42;;;;;;;9.88;1.88;;;15.60;1.00;;;;;;4959229;28;20205;-67
2023/03/27 09:38:35;;;;;;;5.38;1.85;;;13.20;1.00;;;;;;4966656;28;20198;-68
2023/03/27 09:41:17;;;;;;;9.20;2.20;;;11.60;1.00;;;;;;4977279;28;20202;-69
2023/03/27 09:43:59;;;;;;;7.95;2.00;;;11.90;1.00;;;;;;4961016;28;20272;-69
2023/03/27 09:46:28;;;;;;;6.28;1.88;;;16.60;1.00;;;;;;4974453;28;20288;-69
2023/03/27 09:49:15;;;;;;;5.85;1.40;;;16.70;1.00;;;;;;4975422;28;20227;-69
2023/03/27 09:51:50;;;;;;;4.93;1.58;;;14.30;1.00;;;;;;4977559;28;20222;-69
2023/03/27 09:54:53;;;;;;;7.00;1.73;;;12.80;1.00;;;;;;4962330;28;20201;-71
2023/03/27 09:57:39;;;;;;;5.87;1.53;;;11.40;1.00;;;;;;4977229;28;20202;-70
2023/03/27 10:00:32;;;;;;;4.55;1.98;;;13.00;1.00;;;;;;4970283;28;20312;-69
2023/03/27 10:03:27;;;;;;;4.10;1.50;;;20.60;1.00;;;;;;4975905;28;20207;-69
2023/03/27 10:06:09;;;;;;;5.97;1.58;;;21.70;1.00;;;;;;4959752;28;20293;-69
2023/03/27 10:08:55;;;;;;;5.95;2.00;;;17.60;1.00;;;;;;4975191;28;20290;-70
2023/03/27 10:11:32;;;;;;;5.70;1.60;;;14.80;1.00;;;;;;4960186;28;20229;-71
2023/03/27 10:14:16;;;;;;;2.83;1.40;;;12.90;1.00;;;;;;4974757;28;20206;-69
2023/03/27 10:16:46;;;;;;;4.30;1.50;;;16.90;1.00;;;;;;4974319;28;20600;-69
2023/03/27 10:19:22;;;;;;;5.10;1.52;;;20.20;1.00;;;;;;4973561;28;20211;-69
2023/03/27 10:21:51;;;;;;;5.15;1.50;;;17.50;1.00;;;;;;4960194;28;20286;-68
2023/03/27 10:24:32;;;;;;;3.30;1.48;;;14.50;1.00;;;;;;4959535;28;20186;-70
2023/03/27 10:27:27;;;;;;;3.45;1.67;;;12.60;1.00;;;;;;4976210;28;20260;-73
2023/03/27 10:30:34;;;;;;;4.82;1.60;;;14.40;1.00;;;;;;4973133;28;20205;-70
2023/03/27 10:33:39;;;;;;;2.13;1.35;;;16.50;1.00;;;;;;4957788;28;20334;-70
2023/03/27 10:36:37;;;;;;;4.13;1.40;;;22.50;1.00;;;;;;4963234;28;20743;-70
2023/03/27 10:39:12;;;;;;;5.07;1.35;;;22.30;1.00;;;;;;4975575;28;20194;-67
2023/03/27 10:41:54;;;;;;;3.65;1.45;;;22.00;1.00;;;;;;4957540;28;20262;-67
2023/03/27 10:44:24;;;;;;;4.05;1.70;;;18.20;1.00;;;;;;4973118;28;20302;-70
2023/03/27 10:46:55;;;;;;;3.88;1.30;;;17.00;1.00;;;;;;4974180;28;20199;-70
2023/03/27 10:49:43;;;;;;;3.35;1.30;;;18.70;1.00;;;;;;4974102;28;20231;-70
2023/03/27 10:52:45;;;;;;;2.95;1.67;;;22.50;1.00;;;;;;4974771;28;20241;-68
2023/03/27 10:55:40;;;;;;;4.18;1.33;;;21.20;1.00;;;;;;4957116;28;20198;-71
2023/03/27 10:58:32;;;;;;;4.10;1.50;;;16.40;1.00;;;;;;4973449;28;20198;-68
2023/03/27 11:01:23;;;;;;;2.97;1.25;;;13.90;1.00;;;;;;4973923;28;20257;-68
2023/03/27 11:03:56;;;;;;;6.53;1.55;;;15.40;1.00;;;;;;4974227;28;20228;-69
2023/03/27 11:06:32;;;;;;;2.65;1.33;;;18.00;1.00;;;;;;4957683;28;20234;-70
2023/03/27 11:09:22;;;;;;;4.78;1.48;;;19.00;1.00;;;;;;4958676;28;20268;-70
2023/03/27 11:12:10;;;;;;;1.73;1.10;;;20.10;1.00;;;;;;4973798;28;20736;-69
2023/03/27 11:15:03;;;;;;;3.08;1.42;;;21.10;1.00;;;;;;4958196;28;20686;-68
2023/03/27 11:17:39;;;;;;;4.45;1.42;;;18.80;1.00;;;;;;4957568;28;20968;-69
2023/03/27 11:20:43;;;;;;;2.53;1.33;;;16.50;1.00;;;;;;4957415;28;20248;-70
2023/03/27 11:23:38;;;;;;;3.47;1.85;;;15.30;1.00;;;;;;4956707;28;20222;-69
2023/03/27 11:26:34;;;;;;;3.83;1.50;;;15.70;1.00;;;;;;4974433;28;20202;-71
2023/03/27 11:29:21;;;;;;;5.15;1.80;;;15.70;1.00;;;;;;4973712;28;20753;-69
2023/03/27 11:31:54;;;;;;;5.03;1.42;;;15.70;1.00;;;;;;4958282;28;20211;-69
2023/03/27 11:34:52;;;;;;;5.20;1.50;;;15.90;1.00;;;;;;4959610;28;20207;-70
2023/03/27 11:37:48;;;;;;;2.28;1.35;;;16.70;1.00;;;;;;4960023;28;20563;-70
2023/03/27 11:40:27;;;;;;;5.20;1.40;;;15.80;1.00;;;;;;4973218;28;20194;-69
2023/03/27 11:42:58;;;;;;;2.85;1.35;;;17.70;1.00;;;;;;4972993;28;20674;-68
2023/03/27 11:45:31;;;;;;;4.28;1.33;;;18.90;1.00;;;;;;4974231;28;20214;-69
2023/03/27 11:48:13;;;;;;;3.00;1.52;;;18.80;1.00;;;;;;4973238;28;20313;-70
2023/03/27 11:51:00;;;;;;;4.72;1.50;;;16.70;1.00;;;;;;4958194;28;20613;-70
2023/03/27 11:54:02;;;;;;;6.28;1.70;;;16.00;1.00;;;;;;4958629;28;20750;-67
2023/03/27 11:57:01;;;;;;;3.38;1.98;;;17.40;1.00;;;;;;4957244;28;20285;-69
2023/03/27 11:59:55;;;;;;;3.83;1.55;;;18.90;1.00;;;;;;4957833;28;20198;-69
2023/03/27 12:02:52;;;;;;;5.70;1.40;;;19.30;1.00;;;;;;4973711;28;20248;-68
2023/03/27 12:05:51;;;;;;;5.53;1.85;;;19.10;1.00;;;;;;4956889;28;20206;-69
2023/03/27 12:08:24;;;;;;;3.05;1.20;;;16.90;1.00;;;;;;4950074;28;20612;-68
2023/03/27 12:10:55;;;;;;;4.63;1.50;;;15.60;1.00;;;;;;4960900;28;20582;-69
2023/03/27 12:14:14;;;;;;;4.30;1.50;;;15.80;1.00;;;;;;4976751;28;20574;-69
2023/03/27 12:16:57;;;;;;;4.15;1.38;;;14.80;1.00;;;;;;4961573;28;21127;-68
2023/03/27 12:19:49;;;;;;;3.80;1.48;;;14.70;1.00;;;;;;4975821;28;20199;-69
2023/03/27 12:22:37;;;;;;;2.00;1.10;;;14.00;1.00;;;;;;4978935;28;20273;-69
2023/03/27 12:25:40;;;;;;;3.00;1.33;;;13.70;1.00;;;;;;4978105;28;20740;-70
2023/03/27 12:28:44;;;;;;;3.10;1.38;;;13.80;1.00;;;;;;4964630;28;20650;-70
2023/03/27 12:31:31;;;;;;;4.73;1.33;;;13.60;1.00;;;;;;4977759;28;20201;-68
2023/03/27 12:34:11;;;;;;;4.22;1.70;;;12.80;1.00;;;;;;4978923;28;20211;-69
2023/03/27 12:36:46;;;;;;;6.13;3.50;;;13.00;1.00;;;;;;4977347;28;20205;-69
2023/03/27 12:39:20;;;;;;;3.57;1.63;;;13.40;1.00;;;;;;4976748;28;20264;-68
2023/03/27 12:41:48;;;;;;;2.73;1.77;;;12.10;1.00;;;;;;4945265;28;20198;-69
2023/03/27 12:44:30;;;;;;;4.57;1.63;;;10.70;1.00;;;;;;4978174;28;20300;-69
2023/03/27 12:47:28;;;;;;;4.57;1.80;;;9.70;1.00;;;;;;4957050;28;20203;-71
2023/03/27 12:50:25;;;;;;;7.30;2.03;;;9.50;1.00;;;;;;4969256;28;20700;-68
2023/03/27 12:52:53;;;;;;;2.50;1.17;;;9.80;1.00;;;;;;4961984;28;20222;-68
2023/03/27 12:55:35;;;;;;;3.03;1.47;;;10.40;1.00;;;;;;4961888;28;20237;-69
2023/03/27 12:58:33;;;;;;;5.30;1.50;;;10.70;1.00;;;;;;4962414;28;20772;-69
2023/03/27 13:01:21;;;;;;;3.17;1.30;;;11.20;1.00;;;;;;4976522;28;20257;-70
2023/03/27 13:04:14;;;;;;;4.67;1.30;;;11.60;1.00;;;;;;4978005;28;20293;-70
2023/03/27 13:07:11;;;;;;;5.70;1.70;;;11.30;1.00;;;;;;4976898;28;20207;-69
2023/03/27 13:10:07;;;;;;;3.17;1.50;;;11.20;1.00;;;;;;4960587;28;20199;-71
2023/03/27 13:12:45;;;;;;;7.27;1.60;;;11.00;1.00;;;;;;4978139;28;20785;-68
2023/03/27 13:15:24;;;;;;;7.17;1.60;;;10.90;1.00;;;;;;4958336;28;20305;-69
2023/03/27 13:18:21;;;;;;;2.60;1.43;;;10.80;1.00;;;;;;4961686;28;20206;-68
2023/03/27 13:21:00;;;;;;;4.83;1.33;;;11.20;1.00;;;;;;4962737;28;20594;-73
2023/03/27 13:23:58;;;;;;;2.70;1.20;;;11.60;1.00;;;;;;4976913;28;20325;-69
2023/03/27 13:26:33;;;;;;;2.30;1.00;;;11.60;1.00;;;;;;4978884;28;20203;-68
2023/03/27 13:29:01;;;;;;;1.80;1.13;;;10.80;1.00;;;;;;4960452;28;20289;-69
2023/03/27 13:31:56;;;;;;;3.40;1.40;;;10.30;1.00;;;;;;4961351;28;20297;-70
2023/03/27 13:35:08;;;;;;;1.57;1.03;;;10.20;1.00;;;;;;4977486;28;20306;-68
2023/03/27 13:37:46;;;;;;;4.10;1.37;;;10.20;1.00;;;;;;4960657;28;20199;-69
2023/03/27 13:40:26;;;;;;;3.03;1.20;;;10.00;1.00;;;;;;4976578;28;20982;-69
2023/03/27 13:43:21;;;;;;;2.73;1.20;;;10.00;1.00;;;;;;4975178;28;20217;-70
2023/03/27 13:45:57;;;;;;;1.30;1.20;;;10.00;1.00;;;;;;4961583;28;20203;-70
2023/03/27 13:48:56;;;;;;;5.57;1.40;;;9.70;1.00;;;;;;4962705;28;20734;-69
2023/03/27 13:51:57;;;;;;;3.27;1.50;;;9.60;1.00;;;;;;4977842;28;20230;-68
2023/03/27 13:54:26;;;;;;;3.60;1.30;;;9.50;1.00;;;;;;4979183;28;20281;-69
2023/03/27 13:57:31;;;;;;;7.63;1.30;;;9.70;1.00;;;;;;4960999;28;20211;-70
2023/03/27 14:00:16;;;;;;;3.87;1.57;;;9.60;1.00;;;;;;4959199;28;20238;-68